Time;durP1;ratioP1;P1;durP2;ratioP2;P2;SDS_P1;SDS_P2;PMS_P1;PMS_P2;Temp;Humidity;BMP_temperature;BMP_pressure;BME280_temperature;BME280_humidity;BME280_pressure;Samples;Min_cycle;Max_cycle;Signal;HPM_P1;HPM_P2
2022/12/21 00:01:23;;;;;;;22.82;14.18;;;;;;;0.63;70.64;100272.77;1686237;85;21038;-72
2022/12/21 00:03:53;;;;;;;21.20;15.45;;;;;;;0.66;70.76;100273.08;1702707;84;21018;-70
2022/12/21 00:06:19;;;;;;;22.42;12.68;;;;;;;0.67;70.72;100270.82;1706756;83;21035;-72
2022/12/21 00:08:48;;;;;;;22.15;14.63;;;;;;;0.67;70.72;100266.42;1691708;84;21036;-74
2022/12/21 00:11:14;;;;;;;20.02;13.10;;;;;;;0.70;70.59;100275.88;1697823;84;21180;-74
2022/12/21 00:13:41;;;;;;;23.90;14.98;;;;;;;0.69;70.60;100263.72;1697874;84;21553;-73
2022/12/21 00:16:14;;;;;;;21.25;14.58;;;;;;;0.70;70.51;100258.41;1697055;84;21053;-73
2022/12/21 00:18:41;;;;;;;22.82;15.30;;;;;;;0.69;70.44;100249.34;1720724;83;21045;-75
2022/12/21 00:21:13;;;;;;;18.92;13.03;;;;;;;0.71;70.53;100259.23;1720963;83;21015;-72
2022/12/21 00:23:42;;;;;;;20.32;13.55;;;;;;;0.69;70.75;100263.72;1710823;84;21214;-74
2022/12/21 00:26:10;;;;;;;20.27;12.90;;;;;;;0.73;70.73;100271.75;1695989;84;21037;-73
2022/12/21 00:28:38;;;;;;;23.70;13.25;;;;;;;0.69;70.90;100274.18;1689364;83;21535;-74
2022/12/21 00:31:12;;;;;;;20.80;14.80;;;;;;;0.70;70.86;100275.41;1718920;83;21100;-74
2022/12/21 00:33:39;;;;;;;21.93;13.43;;;;;;;0.73;70.82;100266.52;1717851;83;21092;-75
2022/12/21 00:36:08;;;;;;;19.55;13.38;;;;;;;0.69;70.92;100271.56;1719058;83;21131;-74
2022/12/21 00:38:35;;;;;;;18.67;13.62;;;;;;;0.70;70.91;100271.95;1719133;83;21320;-73
2022/12/21 00:41:04;;;;;;;21.85;13.35;;;;;;;0.67;71.13;100250.73;1698039;82;21076;-73
2022/12/21 00:43:33;;;;;;;22.98;13.40;;;;;;;0.66;71.28;100243.84;1725760;82;21009;-73
2022/12/21 00:46:00;;;;;;;22.87;15.15;;;;;;;0.66;71.50;100243.00;1718978;83;21049;-73
2022/12/21 00:48:27;;;;;;;24.90;14.05;;;;;;;0.65;71.62;100228.23;1718890;83;21247;-73
2022/12/21 00:50:54;;;;;;;20.70;13.28;;;;;;;0.61;71.61;100217.59;1730635;82;21013;-72
2022/12/21 00:53:22;;;;;;;20.88;14.83;;;;;;;0.62;71.87;100221.42;1747963;82;21040;-70
2022/12/21 00:55:55;;;;;;;20.92;13.85;;;;;;;0.58;72.08;100227.30;1748276;82;21065;-69
2022/12/21 00:58:24;;;;;;;20.17;13.45;;;;;;;0.57;72.25;100234.76;1690201;84;21088;-71
2022/12/21 01:00:55;;;;;;;20.00;13.22;;;;;;;0.57;71.82;100234.76;1699002;83;22019;-70
2022/12/21 01:03:22;;;;;;;17.50;12.58;;;;;;;0.61;71.63;100231.50;1716858;83;21076;-72
2022/12/21 01:05:49;;;;;;;22.93;14.35;;;;;;;0.58;71.52;100233.84;1712400;83;21041;-70
2022/12/21 01:08:17;;;;;;;18.92;12.20;;;;;;;0.62;71.40;100216.20;1717250;83;21096;-72
2022/12/21 01:10:43;;;;;;;21.55;13.78;;;;;;;0.58;71.46;100219.45;1719296;83;21009;-71
2022/12/21 01:13:12;;;;;;;20.30;12.50;;;;;;;0.64;71.26;100225.23;1719708;82;21135;-73
2022/12/21 01:15:45;;;;;;;19.80;13.70;;;;;;;0.59;71.23;100222.43;1712990;83;21091;-71
2022/12/21 01:18:13;;;;;;;19.87;13.38;;;;;;;0.62;71.36;100224.48;1712599;83;27005;-73
2022/12/21 01:20:45;;;;;;;22.07;14.58;;;;;;;0.61;71.51;100218.89;1686844;83;21129;-72
2022/12/21 01:23:11;;;;;;;23.07;14.68;;;;;;;0.64;71.68;100212.16;1718830;83;21105;-71
2022/12/21 01:25:41;;;;;;;23.05;14.05;;;;;;;0.64;71.68;100201.70;1658595;83;21152;-71
2022/12/21 01:28:09;;;;;;;20.45;13.62;;;;;;;0.66;71.47;100205.09;1743350;82;21062;-71
2022/12/21 01:30:38;;;;;;;20.45;12.58;;;;;;;0.66;71.58;100193.32;1743260;82;21502;-71
2022/12/21 01:33:14;;;;;;;23.92;14.47;;;;;;;0.66;71.67;100199.86;1743365;82;21022;-71
2022/12/21 01:35:41;;;;;;;24.55;12.85;;;;;;;0.71;71.41;100183.40;1704576;84;21049;-70
2022/12/21 01:38:08;;;;;;;22.50;13.93;;;;;;;0.67;71.50;100180.60;1743349;82;21211;-67
2022/12/21 01:40:35;;;;;;;19.32;13.03;;;;;;;0.69;71.60;100178.25;1732586;82;21029;-70
2022/12/21 01:43:18;;;;;;;22.42;14.87;;;;;;;0.67;71.55;100169.67;1726247;82;21015;-71
2022/12/21 01:45:49;;;;;;;21.15;13.78;;;;;;;0.70;71.52;100164.73;1708546;83;21048;-69
2022/12/21 01:48:16;;;;;;;25.17;15.28;;;;;;;0.69;71.79;100173.02;1735236;82;21070;-71
2022/12/21 01:51:00;;;;;;;23.55;14.47;;;;;;;0.69;71.87;100174.81;1743317;82;21857;-69
2022/12/21 01:53:31;;;;;;;22.50;14.30;;;;;;;0.68;71.87;100186.22;1702810;83;21077;-71
2022/12/21 01:56:02;;;;;;;22.42;14.75;;;;;;;0.74;71.58;100180.13;1743825;82;21010;-69
2022/12/21 01:58:29;;;;;;;26.00;14.80;;;;;;;0.71;71.79;100168.54;1743792;80;21073;-68
2022/12/21 02:00:57;;;;;;;21.55;14.55;;;;;;;0.71;71.58;100163.78;1743352;82;21135;-69
2022/12/21 02:03:30;;;;;;;24.67;15.40;;;;;;;0.75;71.53;100153.50;1743352;82;21771;-71
2022/12/21 02:06:08;;;;;;;;;;;;;;;0.74;71.24;100155.28;1745944;82;21507;-72
2022/12/21 02:08:35;;;;;;;20.50;13.50;;;;;;;0.73;71.22;100162.75;1743322;82;20182;-70
2022/12/21 02:11:02;;;;;;;22.00;14.20;;;;;;;0.74;71.36;100151.36;1722242;82;21083;-71
2022/12/21 02:13:28;;;;;;;24.82;13.83;;;;;;;0.72;71.39;100152.41;1743321;82;21038;-69
2022/12/21 02:16:07;;;;;;;25.20;15.05;;;;;;;0.69;71.41;100157.81;1742311;82;21624;-70
2022/12/21 02:19:08;;;;;;;21.57;15.25;;;;;;;0.73;71.52;100144.44;1742838;82;21057;-71
2022/12/21 02:22:00;;;;;;;20.05;14.00;;;;;;;0.67;71.63;100147.44;1742441;80;21035;-70
2022/12/21 02:24:56;;;;;;;21.57;14.28;;;;;;;0.70;71.66;100145.95;1743459;82;21042;-71
2022/12/21 02:27:31;;;;;;;24.60;13.65;;;;;;;0.69;71.80;100136.89;1726180;82;21472;-69
2022/12/21 02:30:17;;;;;;;22.32;14.35;;;;;;;0.67;71.96;100136.98;1717988;83;21540;-71
2022/12/21 02:33:14;;;;;;;22.40;14.78;;;;;;;0.63;71.94;100135.97;1707625;83;21049;-71
2022/12/21 02:36:08;;;;;;;23.27;16.35;;;;;;;0.63;72.20;100136.80;1718061;83;21547;-70
2022/12/21 02:38:46;;;;;;;26.33;16.15;;;;;;;0.61;72.33;100142.59;1717671;83;21093;-71
2022/12/21 02:41:33;;;;;;;23.00;15.63;;;;;;;0.61;72.35;100146.99;1718028;83;21521;-68
2022/12/21 02:44:24;;;;;;;23.25;14.10;;;;;;;0.61;72.43;100149.13;1717905;83;21157;-69
2022/12/21 02:47:45;;;;;;;24.80;13.55;;;;;;;0.65;72.24;100150.62;1712182;83;21120;-68
2022/12/21 02:50:15;;;;;;;23.87;15.18;;;;;;;0.61;72.18;100150.44;1644968;85;21111;-68
2022/12/21 02:52:48;;;;;;;20.27;14.33;;;;;;;0.64;71.96;100143.72;1664741;86;21062;-67
2022/12/21 02:55:15;;;;;;;21.40;12.90;;;;;;;0.65;72.01;100148.48;1688307;83;20992;-67
2022/12/21 02:57:43;;;;;;;19.52;13.85;;;;;;;0.64;71.75;100155.49;1718025;83;21894;-69
2022/12/21 03:00:17;;;;;;;21.97;14.40;;;;;;;0.70;72.02;100151.19;1717941;83;21517;-68
2022/12/21 03:03:49;;;;;;;22.37;13.65;;;;;;;0.67;71.98;100143.52;1716257;83;21002;-70
2022/12/21 03:06:58;;;;;;;21.48;14.53;;;;;;;0.69;71.91;100152.11;1706731;83;21617;-69
2022/12/21 03:09:35;;;;;;;21.82;13.30;;;;;;;0.70;71.79;100136.80;1692120;84;21101;-68
2022/12/21 03:12:30;;;;;;;22.25;14.15;;;;;;;0.67;72.09;100127.83;1708111;83;21171;-67
2022/12/21 03:15:21;;;;;;;22.58;14.60;;;;;;;0.70;72.06;100134.66;1714477;83;21061;-69
2022/12/21 03:18:19;;;;;;;20.52;13.55;;;;;;;0.70;71.91;100132.88;1707704;83;21616;-68
2022/12/21 03:21:09;;;;;;;19.92;13.30;;;;;;;0.73;71.66;100130.53;1718038;83;21565;-67
2022/12/21 03:24:00;;;;;;;21.95;14.73;;;;;;;0.73;71.77;100143.13;1704237;83;21025;-68
2022/12/21 03:26:45;;;;;;;23.38;15.13;;;;;;;0.74;71.62;100144.83;1692474;81;21261;-68
2022/12/21 03:29:15;;;;;;;23.87;15.70;;;;;;;0.72;71.78;100136.72;1713675;83;20976;-70
2022/12/21 03:31:45;;;;;;;22.35;13.45;;;;;;;0.72;71.87;100149.31;1713727;83;21025;-70
2022/12/21 03:34:22;;;;;;;21.45;14.65;;;;;;;0.75;71.71;100146.52;1727609;82;21058;-68
2022/12/21 03:37:07;;;;;;;23.22;14.58;;;;;;;0.77;71.82;100140.72;1743354;82;21524;-70
2022/12/21 03:39:39;;;;;;;20.35;13.70;;;;;;;0.76;71.70;100133.80;1714863;82;21162;-70
2022/12/21 03:42:18;;;;;;;22.82;14.85;;;;;;;0.79;71.72;100134.06;1713676;82;21033;-70
2022/12/21 03:44:58;;;;;;;25.48;15.28;;;;;;;0.76;71.91;100140.34;1713631;83;21022;-69
2022/12/21 03:47:29;;;;;;;26.20;14.43;;;;;;;0.77;71.99;100130.70;1726502;82;21054;-68
2022/12/21 03:50:01;;;;;;;22.58;15.30;;;;;;;0.76;71.96;100127.26;1743757;82;21086;-69
2022/12/21 03:52:44;;;;;;;24.23;15.08;;;;;;;0.78;71.93;100129.78;1741524;82;21165;-68
2022/12/21 03:55:25;;;;;;;20.97;13.68;;;;;;;0.76;72.01;100128.56;1731147;82;21042;-70
2022/12/21 03:57:51;;;;;;;23.18;15.60;;;;;;;0.81;71.92;100126.13;1726031;82;21596;-69
2022/12/21 04:00:17;;;;;;;22.90;14.60;;;;;;;0.79;71.80;100124.91;1713795;83;21024;-68
2022/12/21 04:02:53;;;;;;;24.02;14.78;;;;;;;0.81;71.77;100121.73;1729349;82;21050;-69
2022/12/21 04:05:26;;;;;;;22.85;14.90;;;;;;;0.80;71.85;100125.30;1738214;82;21179;-68
2022/12/21 04:07:53;;;;;;;20.12;14.07;;;;;;;0.85;71.76;100128.92;1743619;82;21041;-68
2022/12/21 04:10:21;;;;;;;24.10;15.50;;;;;;;0.83;71.59;100125.12;1743458;82;21078;-67
2022/12/21 04:12:47;;;;;;;22.25;14.73;;;;;;;0.84;71.51;100118.10;1743323;82;21061;-67
2022/12/21 04:15:19;;;;;;;22.70;14.28;;;;;;;0.86;71.36;100118.37;1738632;82;21077;-68
2022/12/21 04:17:48;;;;;;;20.95;14.10;;;;;;;0.82;71.30;100120.81;1743511;82;21509;-68
2022/12/21 04:20:20;;;;;;;24.77;14.28;;;;;;;0.84;71.28;100122.86;1743352;82;21046;-68
2022/12/21 04:28:28;;;;;;;24.07;15.93;;;;;;;0.77;71.21;100114.57;1742263;82;21081;-71
2022/12/21 04:30:56;;;;;;;22.93;14.83;;;;;;;0.79;71.29;100113.14;1727767;82;21841;-70
2022/12/21 04:33:23;;;;;;;22.75;15.25;;;;;;;0.74;71.44;100113.44;1751187;82;21061;-71
2022/12/21 04:38:40;;;;;;;26.02;15.53;;;;;;;0.70;71.49;100109.82;1734617;82;21540;-70
2022/12/21 04:41:07;;;;;;;23.80;15.88;;;;;;;0.73;71.58;100113.05;1749497;82;21050;-69
2022/12/21 04:43:38;;;;;;;26.30;16.07;;;;;;;0.67;71.49;100113.92;1750481;82;21271;-69
2022/12/21 04:46:12;;;;;;;24.87;16.10;;;;;;;0.71;71.62;100095.31;1731206;82;21018;-71
2022/12/21 04:48:38;;;;;;;27.70;17.15;;;;;;;0.70;71.68;100096.75;1735887;82;21038;-68
2022/12/21 04:51:07;;;;;;;24.75;16.12;;;;;;;0.70;71.69;100096.75;1734332;82;21086;-72
2022/12/21 04:53:34;;;;;;;25.25;16.12;;;;;;;0.71;71.47;100088.78;1739104;82;21552;-70
2022/12/21 04:56:00;;;;;;;25.15;15.10;;;;;;;0.76;71.59;100090.64;1746049;82;21053;-69
2022/12/21 04:58:27;;;;;;;22.30;15.05;;;;;;;0.71;71.30;100087.47;1751251;82;21159;-70
2022/12/21 05:00:53;;;;;;;22.40;14.60;;;;;;;0.75;71.38;100092.91;1750903;82;21049;-70
2022/12/21 05:03:20;;;;;;;26.23;15.93;;;;;;;0.73;71.27;100088.21;1749475;82;21052;-71
2022/12/21 05:05:48;;;;;;;21.15;14.15;;;;;;;0.78;71.26;100103.62;1748433;82;21104;-69
2022/12/21 05:08:14;;;;;;;22.55;15.13;;;;;;;0.75;71.23;100102.50;1751726;82;21135;-70
2022/12/21 05:10:42;;;;;;;24.30;16.35;;;;;;;0.78;71.00;100095.78;1748486;82;22167;-68
2022/12/21 05:13:08;;;;;;;27.15;17.05;;;;;;;0.78;71.04;100098.41;1751230;82;21029;-71
2022/12/21 05:15:38;;;;;;;24.30;15.60;;;;;;;0.75;71.07;100103.81;1750643;81;21089;-70
2022/12/21 05:18:05;;;;;;;25.12;17.25;;;;;;;0.74;71.18;100106.91;1750314;82;21073;-70
2022/12/21 05:20:32;;;;;;;24.07;15.58;;;;;;;0.76;71.07;100106.34;1751128;81;21601;-69
2022/12/21 05:22:59;;;;;;;24.15;17.32;;;;;;;0.75;71.03;100116.44;1750901;82;21089;-67
2022/12/21 05:25:25;;;;;;;24.55;16.67;;;;;;;0.77;71.11;100115.02;1744664;81;21053;-70
2022/12/21 05:27:52;;;;;;;24.98;16.07;;;;;;;0.72;71.31;100102.72;1741709;81;21039;-71
2022/12/21 05:30:19;;;;;;;23.75;15.43;;;;;;;0.76;71.07;100111.56;1741809;82;21042;-72
2022/12/21 05:32:45;;;;;;;23.57;15.28;;;;;;;0.73;71.21;100104.38;1742871;82;21057;-70
2022/12/21 05:35:11;;;;;;;26.93;16.57;;;;;;;0.74;71.35;100111.30;1741311;82;21054;-72
2022/12/21 05:37:38;;;;;;;25.70;16.10;;;;;;;0.71;71.32;100108.87;1742200;82;21022;-70
2022/12/21 05:40:06;;;;;;;22.40;15.68;;;;;;;0.69;71.13;100116.80;1741087;82;21553;-70
2022/12/21 05:42:33;;;;;;;25.80;15.95;;;;;;;0.71;71.02;100116.71;1743391;82;21584;-70
2022/12/21 05:45:00;;;;;;;27.20;15.88;;;;;;;0.67;70.92;100115.23;1741874;82;21160;-72
2022/12/21 05:47:27;;;;;;;26.73;16.70;;;;;;;0.71;70.93;100103.64;1741965;82;21028;-71
2022/12/21 05:49:53;;;;;;;27.30;15.38;;;;;;;0.67;71.26;100098.23;1720629;82;21053;-70
2022/12/21 05:52:19;;;;;;;24.45;15.93;;;;;;;0.66;71.13;100099.19;1742560;82;20994;-70
2022/12/21 05:54:46;;;;;;;24.77;15.58;;;;;;;0.69;71.24;100104.20;1743359;82;20987;-70
2022/12/21 07:21:14;;;;;;;40.13;24.20;;;;;;;1.50;70.67;100131.70;1850422;77;22822;-70
2022/12/21 07:23:41;;;;;;;31.23;20.95;;;;;;;1.49;69.92;100145.75;1823882;78;21262;-73
2022/12/21 07:26:10;;;;;;;35.23;23.90;;;;;;;1.49;69.92;100145.75;1824171;78;21246;-74
2022/12/21 07:28:37;;;;;;;31.45;20.72;;;;;;;1.43;69.84;100137.44;1823983;78;21146;-71
2022/12/21 07:31:08;;;;;;;30.17;20.48;;;;;;;1.37;69.52;100143.46;1805719;78;20981;-73
2022/12/21 07:33:36;;;;;;;35.33;21.05;;;;;;;1.41;69.33;100142.80;1791665;80;21036;-70
2022/12/21 07:36:04;;;;;;;31.57;21.77;;;;;;;1.40;69.52;100142.41;1791766;80;20956;-70
2022/12/21 07:38:34;;;;;;;28.90;19.98;;;;;;;1.42;69.31;100138.39;1791804;79;21571;-68
2022/12/21 07:41:01;;;;;;;29.48;20.02;;;;;;;1.42;69.31;100139.23;1791734;80;20993;-69
2022/12/21 07:43:29;;;;;;;29.63;22.20;;;;;;;1.42;69.05;100140.53;1791678;80;21476;-71
2022/12/21 07:46:09;;;;;;;36.20;22.45;;;;;;;1.46;69.36;100141.17;1800153;78;21018;-69
2022/12/21 08:00:22;;;;;;;31.57;24.53;;;;;;;2.70;66.32;100153.73;1768957;80;23560;-82
2022/12/21 08:02:50;;;;;;;31.25;23.05;;;;;;;2.66;65.71;100155.37;1730546;83;21089;-78
2022/12/21 08:05:18;;;;;;;29.52;21.40;;;;;;;2.51;65.31;100154.20;1732137;83;21840;-81
2022/12/21 08:07:47;;;;;;;35.20;24.35;;;;;;;2.38;65.64;100150.74;1731338;83;21612;-82
2022/12/21 08:10:16;;;;;;;33.65;23.10;;;;;;;2.23;65.74;100145.23;1728072;82;21055;-83
2022/12/21 08:12:42;;;;;;;35.08;24.05;;;;;;;2.12;66.24;100149.41;1727322;83;21683;-81
2022/12/21 08:15:10;;;;;;;38.60;24.37;;;;;;;2.05;66.25;100148.17;1728144;83;21433;-81
2022/12/21 08:17:36;;;;;;;33.83;23.32;;;;;;;1.98;66.59;100137.72;1729838;83;21445;-82
2022/12/21 08:20:04;;;;;;;34.48;24.70;;;;;;;1.94;66.73;100134.47;1727940;83;21339;-83
2022/12/21 08:22:32;;;;;;;32.58;22.22;;;;;;;1.91;66.64;100127.27;1728491;83;20950;-80
2022/12/21 08:24:59;;;;;;;32.40;20.68;;;;;;;1.86;66.75;100134.63;1727978;83;21044;-82
2022/12/21 08:27:25;;;;;;;32.42;19.65;;;;;;;1.84;66.37;100131.27;1726856;82;21037;-79
2022/12/21 08:29:52;;;;;;;31.00;20.97;;;;;;;1.82;66.41;100124.81;1726242;83;21252;-81
2022/12/21 08:32:19;;;;;;;30.08;20.15;;;;;;;1.84;66.44;100127.34;1725958;83;21033;-78
2022/12/21 08:34:45;;;;;;;33.38;21.70;;;;;;;1.83;66.56;100128.27;1713121;83;21028;-80
2022/12/21 08:37:12;;;;;;;34.23;21.60;;;;;;;1.89;66.47;100126.09;1697021;84;21053;-82
2022/12/21 08:39:39;;;;;;;39.00;25.40;;;;;;;1.89;66.49;100122.16;1703812;83;20930;-81
2022/12/21 08:42:05;;;;;;;34.80;22.37;;;;;;;1.95;66.35;100114.33;1698509;83;21098;-81
2022/12/21 08:44:32;;;;;;;33.42;22.05;;;;;;;1.99;66.24;100117.59;1726296;82;21072;-81
2022/12/21 08:46:59;;;;;;;36.20;22.93;;;;;;;2.03;65.82;100126.91;1722930;83;21026;-82
2022/12/21 08:49:25;;;;;;;29.95;21.85;;;;;;;2.02;65.80;100111.67;1724697;83;21122;-81
2022/12/21 08:51:52;;;;;;;37.75;22.58;;;;;;;2.09;66.08;100112.94;1724967;83;21472;-81
2022/12/21 08:54:19;;;;;;;32.15;21.45;;;;;;;2.14;65.95;100109.55;1727687;83;21169;-80
2022/12/21 08:56:45;;;;;;;37.00;22.02;;;;;;;2.22;65.75;100102.91;1728063;83;21033;-82
2022/12/21 08:59:12;;;;;;;37.20;24.00;;;;;;;2.24;65.46;100112.38;1701165;82;21028;-84
2022/12/21 09:01:39;;;;;;;36.23;23.27;;;;;;;2.28;65.49;100100.72;1731479;83;21508;-83
2022/12/21 09:04:05;;;;;;;34.08;22.95;;;;;;;2.31;65.33;100099.66;1731427;82;21469;-82
2022/12/21 09:06:32;;;;;;;32.30;21.77;;;;;;;2.31;64.84;100108.84;1731540;83;21803;-82
2022/12/21 09:08:59;;;;;;;31.57;22.10;;;;;;;2.31;64.97;100107.53;1733213;83;21036;-80
2022/12/21 09:11:27;;;;;;;32.75;22.55;;;;;;;2.28;64.57;100100.72;1732724;82;21033;-82
2022/12/21 09:13:54;;;;;;;35.05;24.25;;;;;;;2.26;64.56;100099.99;1730853;83;21032;-81
2022/12/21 09:16:23;;;;;;;38.28;23.73;;;;;;;2.25;64.36;100106.64;1730775;83;21040;-80
2022/12/21 09:18:50;;;;;;;39.13;24.82;;;;;;;2.25;64.86;100106.64;1731332;82;21101;-82
2022/12/21 09:21:21;;;;;;;32.03;22.10;;;;;;;2.25;64.66;100107.95;1731171;83;21001;-81
2022/12/21 09:23:48;;;;;;;34.90;24.00;;;;;;;2.24;64.58;100111.51;1730843;83;21084;-80
2022/12/21 09:26:15;;;;;;;35.17;22.22;;;;;;;2.25;64.57;100111.41;1731256;82;21037;-78
2022/12/21 09:28:42;;;;;;;35.20;23.35;;;;;;;2.25;64.26;100104.86;1730957;82;21017;-80
2022/12/21 09:31:15;;;;;;;32.90;22.80;;;;;;;2.25;64.15;100094.84;1706329;83;21296;-80
2022/12/21 09:33:42;;;;;;;31.33;21.85;;;;;;;2.26;64.24;100086.88;1731926;82;23083;-80
2022/12/21 09:36:10;;;;;;;30.82;21.02;;;;;;;2.25;64.47;100095.68;1730467;83;21064;-80
2022/12/21 09:38:36;;;;;;;28.15;20.02;;;;;;;2.28;64.07;100098.55;1704355;83;21108;-82
2022/12/21 09:41:30;;;;;;;35.20;22.70;;;;;;;2.27;63.84;100083.30;1719784;83;21108;-79
2022/12/21 09:44:46;;;;;;;31.87;20.95;;;;;;;2.31;64.42;100080.00;1701613;82;21051;-80
2022/12/21 09:47:19;;;;;;;32.95;20.97;;;;;;;2.30;64.00;100079.17;1703456;82;21043;-83
2022/12/21 09:49:59;;;;;;;32.15;20.90;;;;;;;2.36;64.43;100081.84;1721477;83;21065;-81
2022/12/21 09:52:32;;;;;;;32.20;20.68;;;;;;;2.38;64.46;100082.56;1697302;84;21559;-82
2022/12/21 09:55:04;;;;;;;30.12;20.35;;;;;;;2.44;64.64;100083.44;1701643;83;21095;-81
2022/12/21 09:57:34;;;;;;;32.42;21.65;;;;;;;2.48;64.15;100087.52;1715170;82;21084;-81
2022/12/21 10:00:02;;;;;;;31.48;21.93;;;;;;;2.52;64.47;100077.17;1705506;83;21009;-81
2022/12/21 10:03:07;;;;;;;30.32;20.05;;;;;;;2.61;64.45;100077.02;1725728;83;21006;-77
2022/12/21 10:06:07;;;;;;;30.55;20.30;;;;;;;2.65;64.01;100076.33;1713138;83;21104;-77
2022/12/21 10:09:20;;;;;;;30.55;20.68;;;;;;;2.75;63.93;100079.96;1696695;83;21617;-77
2022/12/21 10:11:58;;;;;;;31.00;20.15;;;;;;;2.82;63.90;100062.84;1696378;83;21601;-77
2022/12/21 10:14:40;;;;;;;32.53;20.72;;;;;;;2.91;63.61;100067.88;1696511;83;21071;-77
2022/12/21 10:17:30;;;;;;;34.55;23.30;;;;;;;2.98;62.85;100060.42;1696386;83;21036;-78
2022/12/21 10:20:32;;;;;;;27.90;20.75;;;;;;;3.02;62.80;100052.20;1698533;83;21052;-75
2022/12/21 10:23:03;;;;;;;30.65;21.05;;;;;;;3.13;62.70;100039.61;1718464;83;20990;-76
2022/12/21 10:25:43;;;;;;;29.55;20.43;;;;;;;3.27;62.12;100037.27;1700457;83;21198;-77
2022/12/21 10:28:30;;;;;;;33.20;21.90;;;;;;;3.42;62.36;100036.13;1706492;83;21051;-76
2022/12/21 10:31:06;;;;;;;31.87;21.02;;;;;;;3.57;60.83;100031.97;1704751;80;21020;-78
2022/12/21 10:33:38;;;;;;;29.77;20.88;;;;;;;3.72;60.63;100019.81;1722437;80;21025;-79
2022/12/21 10:36:06;;;;;;;41.63;25.23;;;;;;;3.91;60.25;100016.61;1726405;81;21001;-80
2022/12/21 10:38:34;;;;;;;35.75;24.87;;;;;;;4.14;60.12;100016.14;1707174;79;21108;-75
2022/12/21 10:41:03;;;;;;;37.45;24.87;;;;;;;4.41;58.86;100020.19;1713226;81;21029;-79
2022/12/21 10:43:35;;;;;;;37.20;24.80;;;;;;;4.62;58.65;100010.23;1705273;80;21136;-78
2022/12/21 10:46:01;;;;;;;39.00;25.07;;;;;;;4.82;58.62;100012.08;1727303;81;21454;-77
2022/12/21 10:48:28;;;;;;;34.25;23.98;;;;;;;5.04;58.64;100011.64;1729402;80;20989;-79
2022/12/21 10:50:55;;;;;;;37.55;25.52;;;;;;;5.38;57.16;100003.59;1716075;81;21187;-81
2022/12/21 10:53:25;;;;;;;35.15;24.40;;;;;;;5.55;56.48;100003.01;1700238;81;21025;-79
2022/12/21 10:55:53;;;;;;;35.60;25.32;;;;;;;5.66;56.25;99998.98;1720048;81;20993;-78
2022/12/21 10:58:28;;;;;;;37.78;26.77;;;;;;;5.66;55.19;100014.80;1720466;80;21104;-78
2022/12/21 11:01:04;;;;;;;39.05;27.35;;;;;;;5.50;55.28;100010.45;1720986;79;20966;-81
2022/12/21 11:03:36;;;;;;;39.00;26.87;;;;;;;5.29;55.90;100004.72;1694977;81;21111;-82
2022/12/21 11:06:17;;;;;;;37.53;24.95;;;;;;;5.09;55.91;100014.25;1697885;83;21084;-77
2022/12/21 11:08:48;;;;;;;40.65;29.55;;;;;;;4.92;56.55;100006.90;1717185;80;21030;-81
2022/12/21 11:11:30;;;;;;;36.85;26.48;;;;;;;4.80;56.92;100007.91;1710197;79;21231;-81
2022/12/21 11:14:05;;;;;;;36.88;26.02;;;;;;;4.68;56.90;100011.88;1711217;80;21029;-79
2022/12/21 11:16:31;;;;;;;37.17;27.02;;;;;;;4.53;56.50;99999.47;1705743;80;21211;-79
2022/12/21 11:19:00;;;;;;;37.95;26.25;;;;;;;4.44;57.08;100009.89;1710418;79;20973;-79
2022/12/21 11:21:42;;;;;;;35.25;25.45;;;;;;;4.28;57.17;100007.65;1711499;79;21044;-80
2022/12/21 11:24:36;;;;;;;38.42;25.90;;;;;;;4.21;57.80;100015.20;1728897;79;21071;-77
2022/12/21 11:27:20;;;;;;;37.45;25.80;;;;;;;4.16;57.87;100022.60;1718217;79;20993;-80
2022/12/21 11:29:57;;;;;;;37.78;25.62;;;;;;;4.16;58.02;100019.97;1709298;79;21066;-80
2022/12/21 11:32:24;;;;;;;34.18;25.37;;;;;;;4.22;58.24;100012.91;1725970;79;20982;-82
2022/12/21 11:34:55;;;;;;;37.00;24.35;;;;;;;4.28;57.80;100009.79;1730326;79;21002;-82
2022/12/21 11:37:39;;;;;;;38.38;26.87;;;;;;;4.34;57.86;100011.10;1731069;80;20949;-82
2022/12/21 11:40:20;;;;;;;37.17;27.55;;;;;;;4.38;58.00;100008.58;1719466;79;21029;-84
2022/12/21 11:43:01;;;;;;;42.58;27.05;;;;;;;4.44;58.25;100008.58;1701890;81;21372;-82
2022/12/21 11:45:49;;;;;;;38.63;27.62;;;;;;;4.50;58.11;99998.41;1716773;79;21022;-83
2022/12/21 11:48:51;;;;;;;40.00;26.10;;;;;;;4.55;58.04;100004.61;1702318;81;20924;-82
2022/12/21 11:51:38;;;;;;;36.28;26.25;;;;;;;4.56;58.08;99995.77;1721637;79;21179;-82
2022/12/21 11:54:30;;;;;;;37.45;27.60;;;;;;;4.59;57.98;99996.00;1719320;79;21005;-80
2022/12/21 11:57:34;;;;;;;40.65;26.50;;;;;;;4.51;57.65;99985.60;1720350;80;21109;-79
2022/12/21 12:00:10;;;;;;;34.58;23.60;;;;;;;4.52;57.90;99999.13;1706000;82;21016;-80
2022/12/21 12:02:48;;;;;;;31.95;23.25;;;;;;;4.49;57.39;99996.73;1724328;83;21072;-80
2022/12/21 12:05:33;;;;;;;34.75;23.65;;;;;;;4.46;56.90;99998.77;1732870;83;21018;-82
2022/12/21 12:08:26;;;;;;;30.15;20.45;;;;;;;4.42;56.72;99996.86;1725896;83;21037;-81
2022/12/21 12:11:20;;;;;;;32.28;21.12;;;;;;;4.41;56.43;100007.03;1695216;83;21138;-82
2022/12/21 12:14:11;;;;;;;31.07;20.92;;;;;;;4.36;56.26;100005.23;1716919;83;21071;-82
2022/12/21 12:17:01;;;;;;;31.23;22.15;;;;;;;4.31;56.35;100008.24;1731086;83;20994;-83
2022/12/21 12:19:41;;;;;;;31.90;20.82;;;;;;;4.27;56.78;99998.93;1681559;84;21102;-81
2022/12/21 12:22:34;;;;;;;26.77;18.95;;;;;;;4.23;56.34;100001.45;1703563;84;21574;-81
2022/12/21 12:25:24;;;;;;;27.42;18.75;;;;;;;4.19;56.05;99993.45;1644376;84;21529;-79
2022/12/21 12:28:30;;;;;;;27.52;19.80;;;;;;;4.13;56.00;99988.64;1695770;83;21580;-78
2022/12/21 12:31:23;;;;;;;32.57;20.47;;;;;;;4.13;56.00;99988.64;1721946;83;21112;-79
2022/12/21 12:34:08;;;;;;;30.12;21.37;;;;;;;4.08;56.05;99986.39;1702749;83;21114;-81
2022/12/21 12:36:58;;;;;;;33.05;22.65;;;;;;;4.06;56.17;99985.67;1722730;83;21077;-82
2022/12/21 12:39:36;;;;;;;34.00;21.85;;;;;;;4.04;56.30;99990.22;1714265;83;21099;-82
2022/12/21 12:42:10;;;;;;;35.05;25.08;;;;;;;4.02;56.32;99993.45;1714199;83;21681;-83
2022/12/21 12:45:11;;;;;;;39.05;25.17;;;;;;;4.02;56.32;99993.45;1714565;83;21080;-81
2022/12/21 12:48:01;;;;;;;37.98;25.57;;;;;;;4.03;56.40;99992.96;1716059;83;21057;-79
2022/12/21 12:50:45;;;;;;;39.53;27.17;;;;;;;4.05;56.40;99988.42;1707774;83;21060;-81
2022/12/21 12:53:36;;;;;;;33.58;23.30;;;;;;;4.07;56.16;99983.39;1723687;83;21631;-81
2022/12/21 12:56:47;;;;;;;30.90;22.22;;;;;;;4.14;56.41;99983.76;1731723;83;21004;-79
2022/12/21 12:59:34;;;;;;;39.73;25.08;;;;;;;4.14;56.41;99983.76;1703017;83;21080;-81
2022/12/21 13:02:27;;;;;;;38.58;25.77;;;;;;;4.17;56.39;99987.44;1724935;83;21583;-79
2022/12/21 13:05:19;;;;;;;38.05;26.02;;;;;;;4.18;55.72;99970.72;1695295;83;21121;-80
2022/12/21 13:08:01;;;;;;;41.95;26.93;;;;;;;4.18;55.94;99962.83;1711677;83;21509;-83
2022/12/21 13:10:39;;;;;;;43.17;28.38;;;;;;;4.12;55.93;99962.01;1700953;84;21679;-78
2022/12/21 13:13:37;;;;;;;39.42;25.80;;;;;;;4.12;55.93;99962.01;1702465;83;21053;-82
2022/12/21 13:16:12;;;;;;;40.70;29.37;;;;;;;4.03;56.52;99952.21;1715016;83;21005;-81
2022/12/21 13:18:44;;;;;;;40.48;29.52;;;;;;;3.99;56.54;99951.61;1707203;83;22070;-82
2022/12/21 13:21:10;;;;;;;45.00;30.50;;;;;;;3.98;56.93;99958.30;1715855;83;21239;-82
2022/12/21 13:23:46;;;;;;;49.85;30.80;;;;;;;3.98;56.93;99958.30;1702564;84;21049;-84
2022/12/21 13:26:29;;;;;;;43.20;30.72;;;;;;;3.94;57.03;99949.84;1702441;83;21042;-77
2022/12/21 13:29:21;;;;;;;47.00;32.45;;;;;;;3.94;57.03;99949.84;1721568;83;21587;-80
2022/12/21 13:31:54;;;;;;;41.50;30.40;;;;;;;3.89;57.90;99957.24;1702615;83;21104;-78
2022/12/21 13:34:26;;;;;;;45.48;29.42;;;;;;;3.89;57.90;99957.24;1703023;84;21093;-79
2022/12/21 13:36:53;;;;;;;44.98;30.25;;;;;;;3.85;58.02;99957.13;1704722;83;21131;-79
2022/12/21 13:39:30;;;;;;;36.85;25.65;;;;;;;3.83;58.34;99962.98;1709115;83;21068;-77